Time;durP1;ratioP1;P1;durP2;ratioP2;P2;SDS_P1;SDS_P2;PMS_P1;PMS_P2;Temp;Humidity;BMP_temperature;BMP_pressure;BME280_temperature;BME280_humidity;BME280_pressure;Samples;Min_cycle;Max_cycle;Signal;HPM_P1;HPM_P2
2024/04/08 00:00:41;;;;;;;;;;;16.00;99.90;;;;;;4900526;29;19931;-64
2024/04/08 00:03:07;;;;;;;;;;;16.00;99.90;;;;;;4903058;29;19961;-64
2024/04/08 00:05:33;;;;;;;;;;;15.90;99.90;;;;;;4920523;29;20398;-65
2024/04/08 00:08:01;;;;;;;;;;;15.90;99.90;;;;;;4905032;29;19930;-64
2024/04/08 00:10:27;;;;;;;;;;;15.80;99.90;;;;;;4917029;29;19950;-64
2024/04/08 00:12:53;;;;;;;;;;;15.80;99.90;;;;;;4930537;29;19927;-64
2024/04/08 00:15:20;;;;;;;;;;;15.80;99.90;;;;;;4905015;29;20038;-65
2024/04/08 00:17:46;;;;;;;;;;;15.70;99.90;;;;;;4922423;29;20503;-64
2024/04/08 00:20:12;;;;;;;;;;;15.70;99.90;;;;;;4930339;29;20005;-65
2024/04/08 00:22:38;;;;;;;;;;;15.70;99.90;;;;;;4919753;29;20014;-64
2024/04/08 00:25:05;;;;;;;;;;;15.60;99.90;;;;;;4919557;29;20533;-64
2024/04/08 00:27:31;;;;;;;;;;;15.50;99.90;;;;;;4942905;29;19935;-64
2024/04/08 00:29:57;;;;;;;;;;;15.40;99.90;;;;;;4920692;29;20067;-64
2024/04/08 00:32:22;;;;;;;;;;;15.40;99.90;;;;;;4918864;29;19931;-64
2024/04/08 00:34:48;;;;;;;;;;;15.40;99.90;;;;;;4916983;29;20395;-64
2024/04/08 00:37:14;;;;;;;;;;;15.30;99.90;;;;;;4930196;29;20296;-64
2024/04/08 00:39:40;;;;;;;;;;;15.30;99.90;;;;;;4925963;29;19935;-64
2024/04/08 00:42:06;;;;;;;;;;;15.20;99.90;;;;;;4921747;29;19938;-64
2024/04/08 00:44:32;;;;;;;;;;;15.20;99.90;;;;;;4921023;29;19959;-64
2024/04/08 00:46:59;;;;;;;;;;;15.20;99.90;;;;;;4920864;29;19927;-64
2024/04/08 00:49:26;;;;;;;;;;;15.20;99.90;;;;;;4924264;29;20360;-64
2024/04/08 00:51:52;;;;;;;;;;;15.10;99.90;;;;;;4921650;29;19930;-64
2024/04/08 00:54:18;;;;;;;;;;;15.10;99.90;;;;;;4918290;29;19927;-64
2024/04/08 00:56:44;;;;;;;;;;;15.10;99.90;;;;;;4899070;29;20363;-64
2024/04/08 00:59:14;;;;;;;;;;;15.10;99.90;;;;;;4918984;29;20429;-64
2024/04/08 01:01:40;;;;;;;;;;;15.20;99.90;;;;;;4928058;29;19927;-65
2024/04/08 01:04:06;;;;;;;;;;;15.30;99.90;;;;;;4925521;29;20551;-64
2024/04/08 01:06:32;;;;;;;;;;;15.30;99.90;;;;;;4924297;29;19930;-65
2024/04/08 01:08:58;;;;;;;;;;;15.30;99.90;;;;;;4922517;29;19930;-64
2024/04/08 01:11:24;;;;;;;;;;;15.30;99.90;;;;;;4916683;29;19930;-64
2024/04/08 01:13:50;;;;;;;;;;;15.30;99.90;;;;;;4918432;29;19927;-65
2024/04/08 01:16:16;;;;;;;;;;;15.30;99.90;;;;;;4919830;29;20387;-64
2024/04/08 01:18:42;;;;;;;;;;;15.20;99.90;;;;;;4916243;29;19927;-64
2024/04/08 01:21:08;;;;;;;;;;;15.20;99.90;;;;;;4913368;29;20422;-64
2024/04/08 01:23:44;;;;;;;;;;;15.10;99.90;;;;;;4919138;29;19934;-64
2024/04/08 01:26:10;;;;;;;;;;;15.00;99.90;;;;;;4931354;29;19977;-64
2024/04/08 01:28:39;;;;;;;;;;;15.00;99.90;;;;;;4922388;29;19934;-64
2024/04/08 01:31:05;;;;;;;;;;;14.90;99.90;;;;;;4930355;29;19931;-64
2024/04/08 01:33:31;;;;;;;;;;;14.90;99.90;;;;;;4920840;29;19933;-64
2024/04/08 01:36:04;;;;;;;;;;;14.90;99.90;;;;;;4902502;29;19933;-65
2024/04/08 01:38:30;;;;;;;;;;;14.80;99.90;;;;;;4930053;29;20014;-64
2024/04/08 01:40:56;;;;;;;;;;;14.70;99.90;;;;;;4928060;29;19931;-64
2024/04/08 01:43:23;;;;;;;;;;;14.60;99.90;;;;;;4916791;29;19927;-64
2024/04/08 01:45:49;;;;;;;;;;;14.60;99.90;;;;;;4932184;29;19930;-64
2024/04/08 01:48:15;;;;;;;;;;;14.60;99.90;;;;;;4917520;29;20083;-64
2024/04/08 01:50:41;;;;;;;;;;;14.60;99.90;;;;;;4918661;29;19974;-64
2024/04/08 01:53:06;;;;;;;;;;;14.60;99.90;;;;;;4916765;29;20395;-64
2024/04/08 01:55:32;;;;;;;;;;;14.60;99.90;;;;;;4910114;29;19927;-64
2024/04/08 01:57:58;;;;;;;;;;;14.50;99.90;;;;;;4925601;29;20410;-64
2024/04/08 02:00:24;;;;;;;;;;;14.50;99.90;;;;;;4917146;29;19926;-64
2024/04/08 02:02:50;;;;;;;;;;;14.40;99.90;;;;;;4920873;29;19935;-64
2024/04/08 02:05:16;;;;;;;;;;;14.40;99.90;;;;;;4917634;29;19934;-64
2024/04/08 02:07:43;;;;;;;;;;;14.30;99.90;;;;;;4916114;29;19927;-65
2024/04/08 02:10:09;;;;;;;;;;;14.30;99.90;;;;;;4920454;29;19927;-64
2024/04/08 02:12:34;;;;;;;;;;;14.30;99.90;;;;;;4901268;29;19970;-65
2024/04/08 02:15:00;;;;;;;;;;;14.20;99.90;;;;;;4910159;29;20411;-64
2024/04/08 02:17:26;;;;;;;;;;;14.10;99.90;;;;;;4917397;29;20452;-64
2024/04/08 02:19:52;;;;;;;;;;;14.10;99.90;;;;;;4927400;29;19992;-64
2024/04/08 02:22:18;;;;;;;;;;;14.10;99.90;;;;;;4916854;29;19927;-64
2024/04/08 02:24:44;;;;;;;;;;;14.10;99.90;;;;;;4912188;29;20415;-64
2024/04/08 02:27:09;;;;;;;;;;;14.00;99.90;;;;;;4915542;29;19927;-64
2024/04/08 02:29:35;;;;;;;;;;;13.90;99.90;;;;;;4920247;29;19931;-64
2024/04/08 02:32:01;;;;;;;;;;;13.90;99.90;;;;;;4903244;29;19990;-64
2024/04/08 02:34:27;;;;;;;;;;;13.90;99.90;;;;;;4912376;29;19927;-64
2024/04/08 02:36:53;;;;;;;;;;;13.90;99.90;;;;;;4916476;29;20256;-64
2024/04/08 02:39:19;;;;;;;;;;;13.90;99.90;;;;;;4928012;29;19934;-64
2024/04/08 02:41:45;;;;;;;;;;;13.90;99.90;;;;;;4926490;29;20400;-64
2024/04/08 02:44:11;;;;;;;;;;;13.80;99.90;;;;;;4941573;29;19938;-64
2024/04/08 02:46:37;;;;;;;;;;;13.70;99.90;;;;;;4913730;29;19930;-64
2024/04/08 02:49:02;;;;;;;;;;;13.60;99.90;;;;;;4929028;29;20296;-64
2024/04/08 02:51:28;;;;;;;;;;;13.60;99.90;;;;;;4920368;29;19931;-64
2024/04/08 02:53:54;;;;;;;;;;;13.50;99.90;;;;;;4909361;29;19927;-64
2024/04/08 02:56:20;;;;;;;;;;;13.50;99.90;;;;;;4922361;29;19934;-64
2024/04/08 02:58:47;;;;;;;;;;;13.40;99.90;;;;;;4902392;29;20436;-64
2024/04/08 03:01:13;;;;;;;;;;;13.40;99.90;;;;;;4925284;29;20353;-64
2024/04/08 03:03:40;;;;;;;;;;;13.50;99.90;;;;;;4918937;29;20280;-64
2024/04/08 03:06:10;;;;;;;;;;;13.40;99.90;;;;;;4925704;29;20021;-65
2024/04/08 03:08:36;;;;;;;;;;;13.40;99.90;;;;;;4919914;29;20021;-65
2024/04/08 03:11:02;;;;;;;;;;;13.40;99.90;;;;;;4920239;29;19933;-64
2024/04/08 03:13:28;;;;;;;;;;;13.40;99.90;;;;;;4944539;29;19963;-64
2024/04/08 03:15:54;;;;;;;;;;;13.40;99.90;;;;;;4924183;29;19986;-65
2024/04/08 03:18:20;;;;;;;;;;;13.40;99.90;;;;;;4929482;29;20691;-64
2024/04/08 03:20:55;;;;;;;;;;;13.40;99.90;;;;;;4909437;29;19934;-64
2024/04/08 03:23:22;;;;;;;;;;;13.40;99.90;;;;;;4901476;29;19935;-64
2024/04/08 03:25:55;;;;;;;;;;;13.40;99.90;;;;;;4918010;29;19975;-64
2024/04/08 03:28:21;;;;;;;;;;;13.40;99.90;;;;;;4914677;29;19934;-64
2024/04/08 03:30:47;;;;;;;;;;;13.30;99.90;;;;;;4902535;29;19931;-64
2024/04/08 03:33:13;;;;;;;;;;;13.30;99.90;;;;;;4919622;29;20021;-64
2024/04/08 03:35:39;;;;;;;;;;;13.20;99.90;;;;;;4919587;29;19966;-64
2024/04/08 03:38:04;;;;;;;;;;;13.20;99.90;;;;;;4921578;29;20437;-64
2024/04/08 03:40:30;;;;;;;;;;;13.20;99.90;;;;;;4904443;29;19934;-64
2024/04/08 03:42:56;;;;;;;;;;;13.20;99.90;;;;;;4913484;29;19981;-64
2024/04/08 03:45:22;;;;;;;;;;;13.20;99.90;;;;;;4928142;29;19934;-64
2024/04/08 03:47:48;;;;;;;;;;;13.20;99.90;;;;;;4903687;29;19930;-64
2024/04/08 03:50:13;;;;;;;;;;;13.20;99.90;;;;;;4916332;29;19938;-64
2024/04/08 03:52:40;;;;;;;;;;;13.10;99.90;;;;;;4922307;29;19933;-64
2024/04/08 03:55:06;;;;;;;;;;;13.10;99.90;;;;;;4917427;29;19927;-64
2024/04/08 03:57:31;;;;;;;;;;;13.00;99.90;;;;;;4905414;29;19938;-64
2024/04/08 04:00:01;;;;;;;;;;;13.00;99.90;;;;;;4901502;29;19943;-64
2024/04/08 04:02:26;;;;;;;;;;;13.00;99.90;;;;;;4902098;29;19934;-64
2024/04/08 04:04:52;;;;;;;;;;;12.90;99.90;;;;;;4931261;29;19967;-64
2024/04/08 04:07:18;;;;;;;;;;;12.90;99.90;;;;;;4918077;29;19981;-64
2024/04/08 04:09:44;;;;;;;;;;;12.80;99.90;;;;;;4920591;29;19931;-64
2024/04/08 04:12:10;;;;;;;;;;;12.80;99.90;;;;;;4919277;29;19933;-64
2024/04/08 04:14:36;;;;;;;;;;;12.80;99.90;;;;;;4918007;29;19927;-65
2024/04/08 04:17:02;;;;;;;;;;;12.80;99.90;;;;;;4902925;29;20307;-64
2024/04/08 04:19:28;;;;;;;;;;;12.80;99.90;;;;;;4931778;29;19966;-64
2024/04/08 04:21:54;;;;;;;;;;;12.70;99.90;;;;;;4914105;29;19990;-64
2024/04/08 04:24:20;;;;;;;;;;;12.70;99.90;;;;;;4930994;29;19930;-65
2024/04/08 04:26:46;;;;;;;;;;;12.70;99.90;;;;;;4904046;29;19981;-64
2024/04/08 04:29:11;;;;;;;;;;;12.70;99.90;;;;;;4900724;29;20025;-64
2024/04/08 04:31:42;;;;;;;;;;;12.60;99.90;;;;;;4906080;29;20321;-64
2024/04/08 04:34:08;;;;;;;;;;;12.60;99.90;;;;;;4914485;29;19937;-64
2024/04/08 04:36:33;;;;;;;;;;;12.60;99.90;;;;;;4915122;29;19927;-64
2024/04/08 04:38:59;;;;;;;;;;;12.60;99.90;;;;;;4905018;29;19927;-64
2024/04/08 04:41:25;;;;;;;;;;;12.70;99.90;;;;;;4925768;29;19930;-64
2024/04/08 04:43:51;;;;;;;;;;;12.70;99.90;;;;;;4901392;29;19931;-64
2024/04/08 04:46:17;;;;;;;;;;;12.70;99.90;;;;;;4899800;29;19930;-64
2024/04/08 04:48:43;;;;;;;;;;;12.70;99.90;;;;;;4915890;29;20455;-64
2024/04/08 04:51:10;;;;;;;;;;;12.70;99.90;;;;;;4914463;29;19962;-64
2024/04/08 04:53:36;;;;;;;;;;;12.70;99.90;;;;;;4916503;29;19933;-64
2024/04/08 04:56:02;;;;;;;;;;;12.70;99.90;;;;;;4916469;29;19982;-64
2024/04/08 04:58:28;;;;;;;;;;;12.70;99.90;;;;;;4908344;29;20400;-64
2024/04/08 05:00:54;;;;;;;;;;;12.60;99.90;;;;;;4914616;29;20395;-64
2024/04/08 05:03:20;;;;;;;;;;;12.40;99.90;;;;;;4922755;29;19985;-64
2024/04/08 05:05:53;;;;;;;;;;;12.20;99.90;;;;;;4896996;29;19938;-64
2024/04/08 05:08:18;;;;;;;;;;;12.20;99.90;;;;;;4932335;29;20025;-64
2024/04/08 05:10:44;;;;;;;;;;;12.10;99.90;;;;;;4916121;29;19934;-64
2024/04/08 05:13:10;;;;;;;;;;;12.10;99.90;;;;;;4907659;29;19970;-64
2024/04/08 05:15:36;;;;;;;;;;;12.10;99.90;;;;;;4914738;29;20299;-64
2024/04/08 05:18:02;;;;;;;;;;;12.20;99.90;;;;;;4914499;29;19927;-64
2024/04/08 05:20:29;;;;;;;;;;;12.20;99.90;;;;;;4884410;29;20426;-64
2024/04/08 05:22:55;;;;;;;;;;;12.30;99.90;;;;;;4914902;29;19931;-64
2024/04/08 05:25:21;;;;;;;;;;;12.30;99.90;;;;;;4929745;29;19934;-64
2024/04/08 05:27:47;;;;;;;;;;;12.30;99.90;;;;;;4915936;29;20426;-64
2024/04/08 05:30:13;;;;;;;;;;;12.30;99.90;;;;;;4929868;29;19955;-64
2024/04/08 05:32:39;;;;;;;;;;;12.40;99.90;;;;;;4914636;29;19930;-64
2024/04/08 05:35:06;;;;;;;;;;;12.50;99.90;;;;;;4903398;29;19976;-64
2024/04/08 05:37:32;;;;;;;;;;;12.50;99.90;;;;;;4912886;29;19982;-64
2024/04/08 05:39:58;;;;;;;;;;;12.60;99.90;;;;;;4914812;29;19930;-64
2024/04/08 05:42:24;;;;;;;;;;;12.60;99.90;;;;;;4910362;29;20596;-64
2024/04/08 05:44:50;;;;;;;;;;;12.70;99.90;;;;;;4914585;29;19930;-64
2024/04/08 05:47:16;;;;;;;;;;;12.70;99.90;;;;;;4900012;29;19931;-64
2024/04/08 05:49:41;;;;;;;;;;;12.80;99.90;;;;;;4913557;29;19934;-64
2024/04/08 05:52:07;;;;;;;;;;;12.80;99.90;;;;;;4900629;29;19958;-64
2024/04/08 05:54:33;;;;;;;;;;;12.80;99.90;;;;;;4900437;29;20363;-64
2024/04/08 05:56:59;;;;;;;;;;;12.80;99.90;;;;;;4913819;29;19927;-64
2024/04/08 05:59:26;;;;;;;;;;;12.80;99.90;;;;;;4911003;29;19930;-64
2024/04/08 06:01:52;;;;;;;;;;;12.70;99.90;;;;;;4899041;29;19931;-64
2024/04/08 06:04:18;;;;;;;;;;;12.80;99.90;;;;;;4916103;29;19962;-64
2024/04/08 06:06:46;;;;;;;;;;;12.80;99.90;;;;;;4909846;29;19927;-64
2024/04/08 06:09:11;;;;;;;;;;;12.80;99.90;;;;;;4915736;29;19938;-64
2024/04/08 06:11:37;;;;;;;;;;;12.80;99.90;;;;;;4916309;29;19930;-64
2024/04/08 06:14:03;;;;;;;;;;;12.90;99.90;;;;;;4898922;29;19934;-64
2024/04/08 06:16:29;;;;;;;;;;;12.90;99.90;;;;;;4928794;29;19926;-64
2024/04/08 06:18:55;;;;;;;;;;;13.00;99.90;;;;;;4912477;29;19937;-64
2024/04/08 06:21:21;;;;;;;;;;;13.00;99.90;;;;;;4893355;29;20594;-64
2024/04/08 06:23:47;;;;;;;;;;;13.10;99.90;;;;;;4912946;29;19939;-64
2024/04/08 06:26:14;;;;;;;;;;;13.10;99.90;;;;;;4911205;29;20403;-64
2024/04/08 06:28:40;;;;;;;;;;;13.20;99.90;;;;;;4913975;29;19937;-65
2024/04/08 06:31:06;;;;;;;;;;;13.30;99.90;;;;;;4896992;29;19931;-64
2024/04/08 06:33:32;;;;;;;;;;;13.40;99.90;;;;;;4928457;29;19927;-64
2024/04/08 06:35:58;;;;;;;;;;;13.40;99.90;;;;;;4926196;29;19934;-64
2024/04/08 06:38:24;;;;;;;;;;;13.50;99.90;;;;;;4912086;29;20403;-64
2024/04/08 06:40:50;;;;;;;;;;;13.60;99.90;;;;;;4918888;29;19939;-64
2024/04/08 06:43:16;;;;;;;;;;;13.60;99.90;;;;;;4933520;29;20319;-64
2024/04/08 06:45:42;;;;;;;;;;;13.70;99.90;;;;;;4918178;29;20498;-65
2024/04/08 06:48:09;;;;;;;;;;;13.80;99.90;;;;;;4928192;29;20291;-66
2024/04/08 06:50:35;;;;;;;;;;;13.80;99.90;;;;;;4912552;29;19973;-66
2024/04/08 06:53:00;;;;;;;;;;;13.90;99.90;;;;;;4917463;29;20363;-66
2024/04/08 06:55:26;;;;;;;;;;;13.90;99.90;;;;;;4916786;29;19927;-67
2024/04/08 06:57:52;;;;;;;;;;;14.00;99.90;;;;;;4916207;29;20029;-64
2024/04/08 07:00:19;;;;;;;;;;;14.10;99.90;;;;;;4918694;29;19978;-66
2024/04/08 07:02:45;;;;;;;;;;;14.20;99.90;;;;;;4918784;29;19935;-64
2024/04/08 07:05:11;;;;;;;;;;;14.30;99.90;;;;;;4925806;29;19937;-66
2024/04/08 07:07:37;;;;;;;;;;;14.30;99.90;;;;;;4908956;29;19939;-64
2024/04/08 07:10:03;;;;;;;;;;;14.40;99.90;;;;;;4917046;29;19993;-64
2024/04/08 07:12:29;;;;;;;;;;;14.50;99.90;;;;;;4920322;29;20470;-65
2024/04/08 07:14:55;;;;;;;;;;;14.50;99.90;;;;;;4899599;29;19963;-64
2024/04/08 07:17:21;;;;;;;;;;;14.50;99.90;;;;;;4918418;29;19926;-65
2024/04/08 07:19:48;;;;;;;;;;;14.60;99.90;;;;;;4933292;29;19926;-64
2024/04/08 07:22:14;;;;;;;;;;;14.60;99.90;;;;;;4920795;29;19931;-65
2024/04/08 07:24:40;;;;;;;;;;;14.70;99.90;;;;;;4917300;29;19986;-65
2024/04/08 07:27:07;;;;;;;;;;;14.80;99.90;;;;;;4921214;29;19952;-64
2024/04/08 07:29:33;;;;;;;;;;;14.90;99.90;;;;;;4919568;29;19974;-64
2024/04/08 07:31:59;;;;;;;;;;;14.90;99.90;;;;;;4911634;29;19927;-64
2024/04/08 07:34:25;;;;;;;;;;;15.00;99.90;;;;;;4927463;29;19926;-66
2024/04/08 07:36:51;;;;;;;;;;;15.10;99.90;;;;;;4932279;29;19938;-65
2024/04/08 07:39:17;;;;;;;;;;;15.20;99.90;;;;;;4918715;29;19927;-65
2024/04/08 07:41:43;;;;;;;;;;;15.30;99.90;;;;;;4918162;29;20017;-66
2024/04/08 07:44:09;;;;;;;;;;;15.40;99.90;;;;;;4906991;29;20089;-64
2024/04/08 07:46:35;;;;;;;;;;;15.60;99.90;;;;;;4902450;29;19931;-64
2024/04/08 07:49:01;;;;;;;;;;;15.70;99.90;;;;;;4917948;29;20489;-64
2024/04/08 07:51:27;;;;;;;;;;;15.80;99.90;;;;;;4927148;29;19931;-64
2024/04/08 07:53:53;;;;;;;;;;;15.90;99.90;;;;;;4932642;29;19927;-64
2024/04/08 07:56:19;;;;;;;;;;;16.00;99.90;;;;;;4932226;29;19990;-64
2024/04/08 07:58:45;;;;;;;;;;;16.10;99.90;;;;;;4913834;29;19974;-65
2024/04/08 08:01:11;;;;;;;;;;;16.20;99.90;;;;;;4930193;29;19939;-64
2024/04/08 08:03:38;;;;;;;;;;;16.30;99.90;;;;;;4918035;29;19982;-64
2024/04/08 08:06:04;;;;;;;;;;;16.50;99.90;;;;;;4905750;29;20356;-64
2024/04/08 08:08:30;;;;;;;;;;;16.60;99.90;;;;;;4916488;29;19934;-64
2024/04/08 08:10:57;;;;;;;;;;;16.60;99.90;;;;;;4929100;29;19931;-64
2024/04/08 08:13:23;;;;;;;;;;;16.80;99.90;;;;;;4928589;29;19927;-65
2024/04/08 08:15:53;;;;;;;;;;;16.90;99.90;;;;;;4902075;29;19930;-65
2024/04/08 08:18:19;;;;;;;;;;;17.00;99.90;;;;;;4940787;29;19975;-64
2024/04/08 08:20:45;;;;;;;;;;;17.10;99.90;;;;;;4919009;29;19935;-64
2024/04/08 08:23:10;;;;;;;;;;;17.20;99.90;;;;;;4925948;29;20280;-64
2024/04/08 08:25:36;;;;;;;;;;;17.30;99.90;;;;;;4927900;29;19934;-64
2024/04/08 08:28:03;;;;;;;;;;;17.40;99.90;;;;;;4916381;29;19955;-64
2024/04/08 08:30:29;;;;;;;;;;;17.50;99.90;;;;;;4924523;29;19934;-64
2024/04/08 08:32:55;;;;;;;;;;;17.60;99.90;;;;;;4920967;29;19934;-64
2024/04/08 08:35:21;;;;;;;;;;;17.70;99.90;;;;;;4916233;29;19935;-62
2024/04/08 08:37:46;;;;;;;;;;;17.80;99.90;;;;;;4930890;29;19927;-62
2024/04/08 08:40:12;;;;;;;;;;;17.90;99.90;;;;;;4921300;29;20467;-62
2024/04/08 08:42:38;;;;;;;;;;;18.00;99.90;;;;;;4921551;29;19927;-62
2024/04/08 08:45:05;;;;;;;;;;;18.10;99.90;;;;;;4920964;29;19931;-62
2024/04/08 08:47:32;;;;;;;;;;;18.20;99.90;;;;;;4914542;29;19931;-62
2024/04/08 08:49:58;;;;;;;;;;;18.30;99.90;;;;;;4919692;29;19927;-62
2024/04/08 08:52:24;;;;;;;;;;;18.30;99.90;;;;;;4927386;29;19943;-62
2024/04/08 08:54:50;;;;;;;;;;;18.50;99.90;;;;;;4928291;29;19940;-62
2024/04/08 08:57:16;;;;;;;;;;;18.60;99.90;;;;;;4916807;29;19931;-62
2024/04/08 08:59:43;;;;;;;;;;;18.70;99.90;;;;;;4899857;29;19931;-62
2024/04/08 09:02:11;;;;;;;;;;;18.80;99.90;;;;;;4919548;29;20314;-62
2024/04/08 09:04:37;;;;;;;;;;;19.00;99.90;;;;;;4922081;29;20359;-62
2024/04/08 09:07:02;;;;;;;;;;;19.10;99.90;;;;;;4919993;29;19926;-62
2024/04/08 09:09:28;;;;;;;;;;;19.20;99.90;;;;;;4913506;29;19927;-62
2024/04/08 09:11:54;;;;;;;;;;;19.40;99.90;;;;;;4916176;29;20521;-62
2024/04/08 09:14:22;;;;;;;;;;;19.50;99.90;;;;;;4916529;29;20011;-62
2024/04/08 09:16:49;;;;;;;;;;;19.70;99.90;;;;;;4917255;29;19941;-62
2024/04/08 09:19:15;;;;;;;;;;;19.80;99.90;;;;;;4916516;29;20002;-62
2024/04/08 09:21:42;;;;;;;;;;;20.00;99.90;;;;;;4911255;29;20399;-62
2024/04/08 09:24:08;;;;;;;;;;;20.10;99.90;;;;;;4929520;29;20273;-62
2024/04/08 09:26:34;;;;;;;;;;;20.30;99.90;;;;;;4917041;29;19978;-62
2024/04/08 09:29:00;;;;;;;;;;;20.40;99.90;;;;;;4915947;29;19938;-62
2024/04/08 09:31:29;;;;;;;;;;;20.60;99.90;;;;;;4922377;29;19981;-62
2024/04/08 09:33:56;;;;;;;;;;;20.70;99.90;;;;;;4942134;29;19931;-62
2024/04/08 09:36:22;;;;;;;;;;;20.90;99.90;;;;;;4918656;29;19939;-62
2024/04/08 09:38:49;;;;;;;;;;;21.00;99.90;;;;;;4920012;29;19934;-62
2024/04/08 09:41:16;;;;;;;;;;;21.20;99.90;;;;;;4932624;29;20314;-62
2024/04/08 09:43:42;;;;;;;;;;;21.40;99.90;;;;;;4903533;29;19930;-62
2024/04/08 09:46:09;;;;;;;;;;;21.50;99.90;;;;;;4917242;29;19937;-62
2024/04/08 09:48:37;;;;;;;;;;;21.70;99.90;;;;;;4919136;29;19985;-62
2024/04/08 09:51:05;;;;;;;;;;;21.80;99.90;;;;;;4916553;29;19938;-62
2024/04/08 09:53:33;;;;;;;;;;;21.90;99.90;;;;;;4909145;29;19986;-62
2024/04/08 09:56:02;;;;;;;;;;;22.00;99.90;;;;;;4927161;29;19931;-62
2024/04/08 09:58:31;;;;;;;;;;;22.10;99.90;;;;;;4926011;29;19965;-62
2024/04/08 10:00:57;;;;;;;;;;;22.20;99.90;;;;;;4944041;29;19930;-62
2024/04/08 10:03:26;;;;;;;;;;;22.20;99.90;;;;;;4894799;29;19997;-62
2024/04/08 10:05:52;;;;;;;;;;;22.40;99.90;;;;;;4903319;29;19982;-62
2024/04/08 10:08:18;;;;;;;;;;;22.50;99.90;;;;;;4916721;29;19937;-62
2024/04/08 10:10:44;;;;;;;;;;;22.60;99.90;;;;;;4917911;29;19927;-64
2024/04/08 10:13:11;;;;;;;;;;;22.70;99.90;;;;;;4921558;29;19931;-62
2024/04/08 10:15:37;;;;;;;;;;;22.70;99.90;;;;;;4906904;29;20395;-62
2024/04/08 10:18:03;;;;;;;;;;;22.90;99.90;;;;;;4911609;29;19953;-62
2024/04/08 10:20:29;;;;;;;;;;;23.00;99.90;;;;;;4919259;29;19946;-62
2024/04/08 10:22:55;;;;;;;;;;;23.10;99.90;;;;;;4921820;29;19946;-62
2024/04/08 10:25:33;;;;;;;;;;;23.10;99.90;;;;;;4920656;29;19931;-63
2024/04/08 10:28:03;;;;;;;;;;;23.20;99.90;;;;;;4911051;29;19927;-62
2024/04/08 10:30:30;;;;;;;;;;;23.30;99.90;;;;;;4918310;29;19930;-62
2024/04/08 10:32:56;;;;;;;;;;;23.40;99.90;;;;;;4931366;29;19927;-62
2024/04/08 10:35:23;;;;;;;;;;;23.50;99.90;;;;;;4915805;29;19935;-62
2024/04/08 10:37:49;;;;;;;;;;;23.60;99.90;;;;;;4917203;29;19959;-62
2024/04/08 10:40:15;;;;;;;;;;;23.70;99.90;;;;;;4914439;29;19935;-62
2024/04/08 10:42:41;;;;;;;;;;;23.80;99.90;;;;;;4917147;29;19934;-62
2024/04/08 10:45:07;;;;;;;;;;;23.90;99.90;;;;;;4915510;29;19927;-62
2024/04/08 10:47:33;;;;;;;;;;;24.00;99.90;;;;;;4917298;29;19975;-62
2024/04/08 10:49:59;;;;;;;;;;;24.10;99.90;;;;;;4926811;29;19930;-62
2024/04/08 10:52:25;;;;;;;;;;;24.20;99.90;;;;;;4919316;29;19927;-62
2024/04/08 10:54:50;;;;;;;;;;;24.30;99.90;;;;;;4928397;29;20422;-62
2024/04/08 10:57:16;;;;;;;;;;;24.40;99.90;;;;;;4912236;29;19963;-62
2024/04/08 10:59:42;;;;;;;;;;;24.50;99.90;;;;;;4915046;29;19935;-62
2024/04/08 11:02:12;;;;;;;;;;;24.70;99.90;;;;;;4915210;29;20001;-63
2024/04/08 11:04:38;;;;;;;;;;;24.70;99.90;;;;;;4912742;29;19931;-61
2024/04/08 11:07:04;;;;;;;;;;;24.80;99.90;;;;;;4915684;29;19934;-61
2024/04/08 11:09:30;;;;;;;;;;;24.90;99.90;;;;;;4910953;29;19977;-61
2024/04/08 11:11:56;;;;;;;;;;;25.00;99.90;;;;;;4905544;29;19927;-61
2024/04/08 11:14:22;;;;;;;;;;;25.10;99.90;;;;;;4917963;29;19930;-61
2024/04/08 11:16:48;;;;;;;;;;;25.10;99.90;;;;;;4915431;29;20043;-61
2024/04/08 11:19:14;;;;;;;;;;;25.20;99.90;;;;;;4905497;29;19931;-62
2024/04/08 11:21:40;;;;;;;;;;;25.30;99.00;;;;;;4899817;29;19931;-61
2024/04/08 11:24:10;;;;;;;;;;;25.40;99.60;;;;;;4911369;29;19982;-62
2024/04/08 11:26:35;;;;;;;;;;;25.50;99.90;;;;;;4932912;29;20410;-61
2024/04/08 11:29:01;;;;;;;;;;;25.70;99.90;;;;;;4915346;29;20026;-60
2024/04/08 11:31:27;;;;;;;;;;;25.70;98.30;;;;;;4929569;29;19930;-62
2024/04/08 11:33:53;;;;;;;;;;;25.70;97.30;;;;;;4917297;29;19931;-62
2024/04/08 11:36:19;;;;;;;;;;;25.70;94.80;;;;;;4916832;29;19931;-62
2024/04/08 11:38:45;;;;;;;;;;;25.70;94.20;;;;;;4930665;29;19963;-62
2024/04/08 11:41:11;;;;;;;;;;;25.80;96.40;;;;;;4917357;29;20418;-62
2024/04/08 11:43:37;;;;;;;;;;;25.90;93.30;;;;;;4927354;29;20054;-62
2024/04/08 11:46:03;;;;;;;;;;;25.90;91.80;;;;;;4932870;29;19926;-62
2024/04/08 11:48:30;;;;;;;;;;;26.00;91.90;;;;;;4917292;29;19926;-62
2024/04/08 11:50:56;;;;;;;;;;;26.10;91.50;;;;;;4921077;29;19954;-62
2024/04/08 11:53:22;;;;;;;;;;;26.10;92.20;;;;;;4917838;29;19937;-62
2024/04/08 11:55:48;;;;;;;;;;;26.20;90.00;;;;;;4929206;29;19926;-62
2024/04/08 11:58:14;;;;;;;;;;;26.30;88.00;;;;;;4919616;29;19931;-62
2024/04/08 12:00:40;;;;;;;;;;;26.30;85.10;;;;;;4930643;29;20315;-62
2024/04/08 12:03:06;;;;;;;;;;;26.40;79.40;;;;;;4917767;29;19970;-63
2024/04/08 12:05:32;;;;;;;;;;;26.50;82.60;;;;;;4920810;29;19931;-62
2024/04/08 12:07:58;;;;;;;;;;;26.60;75.60;;;;;;4919662;29;20371;-62
2024/04/08 12:10:23;;;;;;;;;;;26.70;76.10;;;;;;4924933;29;19927;-62
2024/04/08 12:12:49;;;;;;;;;;;26.70;78.10;;;;;;4929075;29;20471;-62
2024/04/08 12:15:19;;;;;;;;;;;26.80;74.50;;;;;;4920620;29;20407;-63
2024/04/08 12:17:45;;;;;;;;;;;26.80;69.20;;;;;;4912169;29;20019;-63
2024/04/08 12:20:12;;;;;;;;;;;26.90;69.20;;;;;;4914243;29;19987;-62
2024/04/08 12:22:40;;;;;;;;;;;27.00;66.70;;;;;;4917383;29;19939;-62
2024/04/08 12:25:06;;;;;;;;;;;27.00;64.80;;;;;;4915479;29;19927;-63
2024/04/08 12:27:32;;;;;;;;;;;27.00;63.40;;;;;;4903392;29;20498;-62
2024/04/08 12:31:23;;;;;;;;;;;27.10;65.40;;;;;;5538604;25;19927;-61
2024/04/08 12:33:54;;;;;;;;;;;27.10;63.90;;;;;;5490687;25;19935;-61
2024/04/08 12:36:21;;;;;;;;;;;27.10;62.10;;;;;;5509708;25;19973;-61
2024/04/08 12:38:48;;;;;;;;;;;27.10;61.10;;;;;;5490975;25;19932;-61
2024/04/08 12:41:15;;;;;;;;;;;27.20;60.70;;;;;;5467870;26;19928;-62
2024/04/08 12:43:44;;;;;;;;;;;27.30;59.60;;;;;;5486100;26;20333;-61
2024/04/08 12:46:11;;;;;;;;;;;27.30;56.30;;;;;;5489622;26;20226;-61
2024/04/08 12:48:37;;;;;;;;;;;27.40;56.10;;;;;;5458248;26;19928;-61
2024/04/08 12:51:09;;;;;;;;;;;27.40;58.90;;;;;;5489890;25;19960;-61
2024/04/08 12:53:36;;;;;;;;;;;27.40;58.50;;;;;;5487997;26;19928;-61
2024/04/08 12:56:09;;;;;;;;;;;27.40;58.40;;;;;;5479366;26;20616;-61
2024/04/08 12:58:41;;;;;;;;;;;27.50;58.10;;;;;;5486293;25;19935;-62
2024/04/08 13:01:12;;;;;;;;;;;27.60;58.10;;;;;;5475132;26;19956;-61
2024/04/08 13:03:39;;;;;;;;;;;27.60;57.50;;;;;;5479183;26;19932;-61
2024/04/08 13:06:07;;;;;;;;;;;27.60;58.40;;;;;;5488445;26;19944;-61
2024/04/08 13:08:39;;;;;;;;;;;27.50;57.10;;;;;;5492873;25;19934;-61
2024/04/08 13:11:05;;;;;;;;;;;27.60;55.30;;;;;;5492009;25;19977;-61
2024/04/08 13:13:38;;;;;;;;;;;27.70;57.10;;;;;;5459001;26;19936;-61
2024/04/08 13:16:08;;;;;;;;;;;27.80;54.90;;;;;;5461213;26;20279;-61
2024/04/08 13:18:40;;;;;;;;;;;27.90;56.50;;;;;;5485181;26;20384;-61
2024/04/08 13:21:08;;;;;;;;;;;27.90;57.50;;;;;;5478100;26;20029;-61
2024/04/08 13:23:35;;;;;;;;;;;27.80;55.20;;;;;;5494247;25;20008;-61
2024/04/08 13:26:02;;;;;;;;;;;27.70;54.80;;;;;;5466441;25;19954;-61
2024/04/08 13:28:33;;;;;;;;;;;27.50;54.20;;;;;;5483961;25;19959;-61
2024/04/08 13:31:00;;;;;;;;;;;27.40;54.70;;;;;;5461110;25;19928;-61
2024/04/08 13:33:27;;;;;;;;;;;27.40;55.30;;;;;;5458469;26;20732;-63
2024/04/08 13:35:54;;;;;;;;;;;27.40;53.80;;;;;;5485936;25;19939;-61
2024/04/08 13:38:21;;;;;;;;;;;27.50;57.90;;;;;;5460667;26;19928;-61
2024/04/08 13:40:47;;;;;;;;;;;27.50;63.70;;;;;;5489769;26;20327;-61
2024/04/08 13:43:19;;;;;;;;;;;27.60;62.50;;;;;;5470198;26;20396;-61
2024/04/08 13:45:47;;;;;;;;;;;27.60;62.20;;;;;;5470820;26;19928;-61
2024/04/08 13:48:14;;;;;;;;;;;27.70;63.40;;;;;;5475012;26;19928;-61
2024/04/08 13:50:40;;;;;;;;;;;27.80;61.00;;;;;;5465054;26;19928;-61
2024/04/08 13:53:07;;;;;;;;;;;27.90;61.40;;;;;;5460785;26;19928;-61
2024/04/08 13:55:34;;;;;;;;;;;28.10;65.60;;;;;;5475688;26;19928;-61
2024/04/08 13:58:02;;;;;;;;;;;28.20;62.50;;;;;;5470903;26;20261;-61
2024/04/08 14:00:29;;;;;;;;;;;28.20;64.20;;;;;;5478909;26;19935;-61
2024/04/08 14:02:56;;;;;;;;;;;28.20;64.50;;;;;;5470235;26;19957;-61
2024/04/08 14:05:23;;;;;;;;;;;28.20;62.30;;;;;;5437144;26;19938;-61
2024/04/08 14:07:50;;;;;;;;;;;28.10;62.90;;;;;;5445988;26;20013;-61
2024/04/08 14:10:17;;;;;;;;;;;28.20;60.80;;;;;;5472639;26;20277;-62
2024/04/08 14:12:44;;;;;;;;;;;28.20;57.70;;;;;;5472633;26;19929;-61